SWA359 KAUS-KHRL
Flight info
| Callsign | SWA359 |
|---|---|
| Flight time | 0h 50m |
| Altitude | 33000 |
| Route | BNDIA3 BNDIA SLENA/N0371F170 V163 SINTO |
| Aircraft | B738/M-SDE2E3FGHIRWXY/LB1 |
Departure
| Time | 2026-04-30 01:20 |
|---|---|
| Airport | Austin Bergstrom International Airport (KAUS) |
Arrival
| Time | 2026-04-30 02:11 |
|---|---|
| Airport | Valley International Airport (KHRL) |
| Time | Latitude | Longitude | Altitude | Speed | Heading |
|---|---|---|---|---|---|
| 2026-04-30 00:19 | 30.20132 | -97.66720 | 526 ft | 0 kts | 8° |
| 2026-04-30 01:05 | 30.20121 | -97.66722 | 526 ft | 4 kts | 8° |
| 2026-04-30 01:06 | 30.20099 | -97.66725 | 526 ft | 3 kts | 8° |
| 2026-04-30 01:06 | 30.20074 | -97.66732 | 526 ft | 4 kts | 32° |
| 2026-04-30 01:06 | 30.20062 | -97.66751 | 526 ft | 3 kts | 97° |
| 2026-04-30 01:06 | 30.20065 | -97.66776 | 526 ft | 1 kts | 97° |
| 2026-04-30 01:10 | 30.20063 | -97.66752 | 526 ft | 5 kts | 96° |
| 2026-04-30 01:10 | 30.20041 | -97.66700 | 526 ft | 9 kts | 147° |
| 2026-04-30 01:10 | 30.19966 | -97.66688 | 526 ft | 13 kts | 178° |
| 2026-04-30 01:10 | 30.19908 | -97.66621 | 526 ft | 15 kts | 91° |
| 2026-04-30 01:11 | 30.19910 | -97.66522 | 526 ft | 15 kts | 88° |
| 2026-04-30 01:11 | 30.19912 | -97.66404 | 526 ft | 14 kts | 89° |
| 2026-04-30 01:11 | 30.19915 | -97.66291 | 526 ft | 14 kts | 88° |
| 2026-04-30 01:11 | 30.19917 | -97.66177 | 526 ft | 18 kts | 88° |
| 2026-04-30 01:12 | 30.19920 | -97.66035 | 526 ft | 16 kts | 89° |
| 2026-04-30 01:12 | 30.19909 | -97.65915 | 526 ft | 13 kts | 134° |
| 2026-04-30 01:12 | 30.19821 | -97.65903 | 526 ft | 13 kts | 179° |
| 2026-04-30 01:12 | 30.19731 | -97.65900 | 526 ft | 14 kts | 178° |
| 2026-04-30 01:13 | 30.19630 | -97.65896 | 526 ft | 16 kts | 178° |
| 2026-04-30 01:13 | 30.19516 | -97.65893 | 526 ft | 17 kts | 179° |
| 2026-04-30 01:13 | 30.19397 | -97.65891 | 527 ft | 17 kts | 179° |
| 2026-04-30 01:13 | 30.19283 | -97.65888 | 527 ft | 16 kts | 178° |
| 2026-04-30 01:14 | 30.19171 | -97.65884 | 527 ft | 17 kts | 178° |
| 2026-04-30 01:14 | 30.19043 | -97.65879 | 527 ft | 19 kts | 179° |
| 2026-04-30 01:14 | 30.18906 | -97.65877 | 527 ft | 19 kts | 179° |
| 2026-04-30 01:14 | 30.18773 | -97.65874 | 527 ft | 19 kts | 179° |
| 2026-04-30 01:15 | 30.18645 | -97.65872 | 526 ft | 18 kts | 179° |
| 2026-04-30 01:15 | 30.18509 | -97.65868 | 526 ft | 21 kts | 179° |
| 2026-04-30 01:15 | 30.18363 | -97.65864 | 526 ft | 21 kts | 178° |
| 2026-04-30 01:15 | 30.18222 | -97.65861 | 526 ft | 20 kts | 179° |
| 2026-04-30 01:16 | 30.18085 | -97.65858 | 526 ft | 19 kts | 179° |
| 2026-04-30 01:16 | 30.17965 | -97.65856 | 526 ft | 13 kts | 176° |
| 2026-04-30 01:16 | 30.17918 | -97.65795 | 527 ft | 7 kts | 93° |
| 2026-04-30 01:16 | 30.17919 | -97.65745 | 527 ft | 6 kts | 85° |
| 2026-04-30 01:17 | 30.17946 | -97.65728 | 526 ft | 6 kts | 3° |
| 2026-04-30 01:17 | 30.17962 | -97.65728 | 526 ft | 0 kts | 1° |
| 2026-04-30 01:20 | 30.18002 | -97.65728 | 525 ft | 23 kts | 359° |
| 2026-04-30 01:20 | 30.18439 | -97.65739 | 524 ft | 101 kts | 358° |
| 2026-04-30 01:20 | 30.19365 | -97.65761 | 538 ft | 162 kts | 359° |
| 2026-04-30 01:20 | 30.20520 | -97.65817 | 1281 ft | 160 kts | 357° |
| 2026-04-30 01:21 | 30.21591 | -97.65881 | 2221 ft | 157 kts | 360° |
| 2026-04-30 01:21 | 30.22772 | -97.65897 | 2695 ft | 183 kts | 359° |
| 2026-04-30 01:21 | 30.24107 | -97.65946 | 3214 ft | 201 kts | 360° |
| 2026-04-30 01:21 | 30.26084 | -97.65959 | 3607 ft | 231 kts | 2° |
| 2026-04-30 01:22 | 30.27195 | -97.65948 | 3748 ft | 250 kts | 2° |
| 2026-04-30 01:22 | 30.29013 | -97.65914 | 4034 ft | 269 kts | 3° |
| 2026-04-30 01:22 | 30.30880 | -97.65920 | 4083 ft | 269 kts | 355° |
| 2026-04-30 01:22 | 30.32610 | -97.66804 | 4525 ft | 284 kts | 318° |
| 2026-04-30 01:23 | 30.33733 | -97.68674 | 5558 ft | 281 kts | 289° |
| 2026-04-30 01:23 | 30.34071 | -97.70829 | 6783 ft | 270 kts | 265° |
| 2026-04-30 01:23 | 30.33609 | -97.72915 | 7643 ft | 271 kts | 240° |
| 2026-04-30 01:23 | 30.32415 | -97.74613 | 8465 ft | 276 kts | 219° |
| 2026-04-30 01:24 | 30.30831 | -97.75895 | 9288 ft | 280 kts | 213° |
| 2026-04-30 01:24 | 30.29175 | -97.77102 | 10164 ft | 282 kts | 214° |
| 2026-04-30 01:24 | 30.27466 | -97.78333 | 10711 ft | 298 kts | 214° |
| 2026-04-30 01:24 | 30.25644 | -97.79652 | 10959 ft | 321 kts | 215° |
| 2026-04-30 01:25 | 30.23693 | -97.81072 | 11272 ft | 339 kts | 215° |
| 2026-04-30 01:25 | 30.21677 | -97.82544 | 11903 ft | 346 kts | 216° |
| 2026-04-30 01:25 | 30.19633 | -97.84042 | 12627 ft | 349 kts | 216° |
| 2026-04-30 01:25 | 30.17577 | -97.85553 | 13447 ft | 350 kts | 217° |
| 2026-04-30 01:26 | 30.15520 | -97.87066 | 14318 ft | 351 kts | 217° |
| 2026-04-30 01:26 | 30.13430 | -97.88549 | 15086 ft | 357 kts | 212° |
| 2026-04-30 01:26 | 30.11067 | -97.89596 | 15730 ft | 371 kts | 200° |
| 2026-04-30 01:26 | 30.08543 | -97.90318 | 16468 ft | 374 kts | 199° |
| 2026-04-30 01:27 | 30.06008 | -97.91030 | 17217 ft | 376 kts | 200° |
| 2026-04-30 01:27 | 30.03487 | -97.91740 | 17950 ft | 378 kts | 200° |
| 2026-04-30 01:27 | 30.00921 | -97.92469 | 18641 ft | 381 kts | 200° |
| 2026-04-30 01:27 | 29.98332 | -97.93215 | 19249 ft | 386 kts | 201° |
| 2026-04-30 01:28 | 29.95714 | -97.93985 | 19827 ft | 391 kts | 201° |
| 2026-04-30 01:28 | 29.93064 | -97.94764 | 20409 ft | 395 kts | 201° |
| 2026-04-30 01:28 | 29.90386 | -97.95547 | 20985 ft | 398 kts | 201° |
| 2026-04-30 01:28 | 29.87688 | -97.96335 | 21520 ft | 402 kts | 201° |
| 2026-04-30 01:29 | 29.84959 | -97.97131 | 22029 ft | 406 kts | 201° |
| 2026-04-30 01:29 | 29.82205 | -97.97933 | 22517 ft | 410 kts | 201° |
| 2026-04-30 01:29 | 29.79424 | -97.98742 | 22972 ft | 414 kts | 201° |
| 2026-04-30 01:29 | 29.76609 | -97.99560 | 23431 ft | 417 kts | 201° |
| 2026-04-30 01:30 | 29.73780 | -98.00382 | 23868 ft | 421 kts | 201° |
| 2026-04-30 01:30 | 29.70927 | -98.01210 | 24278 ft | 424 kts | 201° |
| 2026-04-30 01:30 | 29.68051 | -98.02045 | 24656 ft | 428 kts | 201° |
| 2026-04-30 01:30 | 29.65191 | -98.02875 | 25029 ft | 431 kts | 202° |
| 2026-04-30 01:31 | 29.62236 | -98.03732 | 25425 ft | 434 kts | 202° |
| 2026-04-30 01:31 | 29.59329 | -98.04574 | 25788 ft | 438 kts | 202° |
| 2026-04-30 01:31 | 29.56360 | -98.05434 | 26154 ft | 441 kts | 202° |
| 2026-04-30 01:31 | 29.53378 | -98.06297 | 26507 ft | 444 kts | 202° |
| 2026-04-30 01:32 | 29.50368 | -98.07167 | 26849 ft | 447 kts | 202° |
| 2026-04-30 01:32 | 29.47344 | -98.08041 | 27176 ft | 450 kts | 202° |
| 2026-04-30 01:32 | 29.44293 | -98.08923 | 27501 ft | 453 kts | 202° |
| 2026-04-30 01:32 | 29.41223 | -98.09810 | 27815 ft | 456 kts | 202° |
| 2026-04-30 01:33 | 29.38133 | -98.10701 | 28116 ft | 459 kts | 202° |
| 2026-04-30 01:33 | 29.35024 | -98.11596 | 28409 ft | 462 kts | 202° |
| 2026-04-30 01:33 | 29.31895 | -98.12497 | 28700 ft | 465 kts | 202° |
| 2026-04-30 01:33 | 29.28758 | -98.13400 | 29034 ft | 466 kts | 202° |
| 2026-04-30 01:34 | 29.25609 | -98.14305 | 29453 ft | 466 kts | 202° |
| 2026-04-30 01:34 | 29.22466 | -98.15206 | 29884 ft | 465 kts | 202° |
| 2026-04-30 01:34 | 29.19332 | -98.16106 | 30300 ft | 465 kts | 202° |
| 2026-04-30 01:34 | 29.16192 | -98.17007 | 30732 ft | 465 kts | 202° |
| 2026-04-30 01:35 | 29.13061 | -98.17905 | 31196 ft | 463 kts | 202° |
| 2026-04-30 01:35 | 29.09945 | -98.18797 | 31694 ft | 461 kts | 203° |
| 2026-04-30 01:35 | 29.06837 | -98.19688 | 32083 ft | 461 kts | 203° |
| 2026-04-30 01:35 | 29.03698 | -98.20598 | 32127 ft | 470 kts | 203° |
| 2026-04-30 01:36 | 28.97332 | -98.22439 | 32814 ft | 465 kts | 202° |
| 2026-04-30 01:36 | 28.91108 | -98.24194 | 32872 ft | 460 kts | 202° |
| 2026-04-30 01:37 | 28.84936 | -98.25949 | 32883 ft | 456 kts | 202° |
| 2026-04-30 01:37 | 28.78762 | -98.27715 | 32882 ft | 458 kts | 202° |
| 2026-04-30 01:38 | 28.72573 | -98.29481 | 32880 ft | 459 kts | 202° |
| 2026-04-30 01:38 | 28.66372 | -98.31244 | 32873 ft | 460 kts | 202° |
| 2026-04-30 01:39 | 28.59911 | -98.31787 | 32878 ft | 489 kts | 173° |
| 2026-04-30 01:39 | 28.56687 | -98.30380 | 32869 ft | 505 kts | 155° |
| 2026-04-30 01:39 | 28.53912 | -98.27943 | 32861 ft | 517 kts | 137° |
| 2026-04-30 01:40 | 28.49217 | -98.21735 | 32862 ft | 518 kts | 133° |
| 2026-04-30 01:40 | 28.44622 | -98.15424 | 32847 ft | 516 kts | 133° |
| 2026-04-30 01:41 | 28.39990 | -98.09219 | 32845 ft | 513 kts | 134° |
| 2026-04-30 01:41 | 28.35329 | -98.03089 | 32846 ft | 511 kts | 134° |
| 2026-04-30 01:42 | 28.30677 | -97.97002 | 32852 ft | 510 kts | 134° |
| 2026-04-30 01:42 | 28.26019 | -97.90909 | 32860 ft | 510 kts | 134° |
| 2026-04-30 01:43 | 28.21372 | -97.84828 | 32866 ft | 510 kts | 134° |
| 2026-04-30 01:43 | 28.16749 | -97.78787 | 32873 ft | 510 kts | 134° |
| 2026-04-30 01:44 | 28.12089 | -97.72706 | 32767 ft | 512 kts | 134° |
| 2026-04-30 01:44 | 28.09741 | -97.69648 | 32147 ft | 514 kts | 134° |
| 2026-04-30 01:44 | 28.07396 | -97.66591 | 31492 ft | 512 kts | 134° |
| 2026-04-30 01:45 | 28.05068 | -97.63559 | 30932 ft | 508 kts | 134° |
| 2026-04-30 01:45 | 28.02758 | -97.60553 | 30422 ft | 503 kts | 134° |
| 2026-04-30 01:45 | 28.00472 | -97.57582 | 29913 ft | 499 kts | 134° |
| 2026-04-30 01:45 | 27.98205 | -97.54638 | 29410 ft | 494 kts | 134° |
| 2026-04-30 01:46 | 27.95957 | -97.51721 | 28905 ft | 488 kts | 134° |
| 2026-04-30 01:46 | 27.93690 | -97.48895 | 28382 ft | 481 kts | 141° |
| 2026-04-30 01:46 | 27.90973 | -97.46838 | 27896 ft | 463 kts | 161° |
| 2026-04-30 01:46 | 27.87966 | -97.45715 | 27418 ft | 448 kts | 174° |
| 2026-04-30 01:47 | 27.84927 | -97.45359 | 26889 ft | 433 kts | 188° |
| 2026-04-30 01:47 | 27.82016 | -97.45685 | 26404 ft | 421 kts | 194° |
| 2026-04-30 01:47 | 27.79133 | -97.46164 | 25924 ft | 416 kts | 195° |
| 2026-04-30 01:47 | 27.76285 | -97.46666 | 25437 ft | 412 kts | 195° |
| 2026-04-30 01:48 | 27.73453 | -97.47168 | 24959 ft | 410 kts | 195° |
| 2026-04-30 01:48 | 27.70652 | -97.47654 | 24507 ft | 405 kts | 195° |
| 2026-04-30 01:48 | 27.67864 | -97.48127 | 24019 ft | 405 kts | 194° |
| 2026-04-30 01:48 | 27.65070 | -97.48594 | 23539 ft | 406 kts | 194° |
| 2026-04-30 01:49 | 27.62291 | -97.49051 | 23059 ft | 402 kts | 194° |
| 2026-04-30 01:49 | 27.59528 | -97.49500 | 22578 ft | 398 kts | 194° |
| 2026-04-30 01:49 | 27.56806 | -97.49940 | 22106 ft | 394 kts | 194° |
| 2026-04-30 01:49 | 27.54100 | -97.50377 | 21637 ft | 390 kts | 194° |
| 2026-04-30 01:50 | 27.51428 | -97.50809 | 21166 ft | 386 kts | 194° |
| 2026-04-30 01:50 | 27.48782 | -97.51237 | 20710 ft | 382 kts | 194° |
| 2026-04-30 01:50 | 27.46164 | -97.51660 | 20252 ft | 379 kts | 193° |
| 2026-04-30 01:50 | 27.43589 | -97.52076 | 19797 ft | 377 kts | 193° |
| 2026-04-30 01:51 | 27.40989 | -97.52497 | 19334 ft | 377 kts | 193° |
| 2026-04-30 01:51 | 27.38385 | -97.52917 | 18878 ft | 377 kts | 193° |
| 2026-04-30 01:51 | 27.35803 | -97.53335 | 18419 ft | 373 kts | 193° |
| 2026-04-30 01:51 | 27.33240 | -97.53748 | 17961 ft | 369 kts | 193° |
| 2026-04-30 01:52 | 27.30710 | -97.54155 | 17510 ft | 365 kts | 193° |
| 2026-04-30 01:52 | 27.28206 | -97.54558 | 17074 ft | 362 kts | 193° |
| 2026-04-30 01:52 | 27.25736 | -97.54955 | 16757 ft | 355 kts | 192° |
| 2026-04-30 01:52 | 27.23290 | -97.55349 | 16341 ft | 355 kts | 192° |
| 2026-04-30 01:53 | 27.20841 | -97.55745 | 15911 ft | 355 kts | 192° |
| 2026-04-30 01:53 | 27.18398 | -97.56138 | 15485 ft | 354 kts | 192° |
| 2026-04-30 01:53 | 27.15970 | -97.56528 | 15049 ft | 350 kts | 192° |
| 2026-04-30 01:53 | 27.13567 | -97.56915 | 14615 ft | 347 kts | 191° |
| 2026-04-30 01:54 | 27.11188 | -97.57298 | 14185 ft | 344 kts | 191° |
| 2026-04-30 01:54 | 27.08829 | -97.57676 | 13758 ft | 341 kts | 191° |
| 2026-04-30 01:54 | 27.06492 | -97.58051 | 13334 ft | 337 kts | 191° |
| 2026-04-30 01:54 | 27.04210 | -97.58414 | 12919 ft | 334 kts | 191° |
| 2026-04-30 01:55 | 27.01919 | -97.58782 | 12500 ft | 331 kts | 191° |
| 2026-04-30 01:55 | 26.99641 | -97.59148 | 12080 ft | 329 kts | 190° |
| 2026-04-30 01:55 | 26.97383 | -97.59511 | 11670 ft | 329 kts | 190° |
| 2026-04-30 01:55 | 26.95118 | -97.59875 | 11256 ft | 329 kts | 190° |
| 2026-04-30 01:56 | 26.92864 | -97.60236 | 10831 ft | 326 kts | 189° |
| 2026-04-30 01:56 | 26.90643 | -97.60593 | 10604 ft | 317 kts | 189° |
| 2026-04-30 01:56 | 26.88497 | -97.60935 | 10454 ft | 306 kts | 189° |
| 2026-04-30 01:56 | 26.86419 | -97.61266 | 10317 ft | 296 kts | 189° |
| 2026-04-30 01:57 | 26.84413 | -97.61587 | 10188 ft | 286 kts | 189° |
| 2026-04-30 01:57 | 26.82474 | -97.61896 | 10075 ft | 277 kts | 189° |
| 2026-04-30 01:57 | 26.80587 | -97.62198 | 9857 ft | 272 kts | 189° |
| 2026-04-30 01:57 | 26.78724 | -97.62496 | 9618 ft | 268 kts | 189° |
| 2026-04-30 01:58 | 26.76879 | -97.62792 | 9383 ft | 266 kts | 188° |
| 2026-04-30 01:58 | 26.75044 | -97.63087 | 9136 ft | 268 kts | 188° |
| 2026-04-30 01:58 | 26.73184 | -97.63382 | 8879 ft | 270 kts | 188° |
| 2026-04-30 01:58 | 26.71341 | -97.63676 | 8650 ft | 266 kts | 188° |
| 2026-04-30 01:59 | 26.67727 | -97.64252 | 8163 ft | 259 kts | 188° |
| 2026-04-30 01:59 | 26.65937 | -97.64538 | 7932 ft | 261 kts | 188° |
| 2026-04-30 01:59 | 26.64130 | -97.64825 | 7685 ft | 261 kts | 188° |
| 2026-04-30 02:00 | 26.62338 | -97.65111 | 7421 ft | 259 kts | 187° |
| 2026-04-30 02:00 | 26.60558 | -97.65394 | 7142 ft | 257 kts | 187° |
| 2026-04-30 02:00 | 26.58792 | -97.65674 | 6883 ft | 255 kts | 187° |
| 2026-04-30 02:00 | 26.57065 | -97.65950 | 6629 ft | 252 kts | 187° |
| 2026-04-30 02:01 | 26.55354 | -97.66220 | 6363 ft | 244 kts | 187° |
| 2026-04-30 02:01 | 26.53701 | -97.66484 | 6077 ft | 237 kts | 187° |
| 2026-04-30 02:01 | 26.52088 | -97.66741 | 5813 ft | 231 kts | 187° |
| 2026-04-30 02:01 | 26.50504 | -97.66992 | 5555 ft | 230 kts | 186° |
| 2026-04-30 02:02 | 26.48930 | -97.67253 | 5297 ft | 229 kts | 191° |
| 2026-04-30 02:02 | 26.47521 | -97.68053 | 5096 ft | 225 kts | 216° |
| 2026-04-30 02:02 | 26.46396 | -97.69231 | 4876 ft | 217 kts | 222° |
| 2026-04-30 02:02 | 26.45363 | -97.70430 | 4656 ft | 213 kts | 222° |
| 2026-04-30 02:03 | 26.44336 | -97.71623 | 4424 ft | 215 kts | 222° |
| 2026-04-30 02:03 | 26.43289 | -97.72827 | 4182 ft | 216 kts | 222° |
| 2026-04-30 02:03 | 26.42248 | -97.74019 | 4021 ft | 214 kts | 221° |
| 2026-04-30 02:03 | 26.41218 | -97.75191 | 3899 ft | 208 kts | 221° |
| 2026-04-30 02:04 | 26.40234 | -97.76312 | 3784 ft | 196 kts | 221° |
| 2026-04-30 02:04 | 26.39290 | -97.77383 | 3699 ft | 191 kts | 221° |
| 2026-04-30 02:04 | 26.38360 | -97.78436 | 3613 ft | 191 kts | 221° |
| 2026-04-30 02:04 | 26.37391 | -97.79437 | 3526 ft | 186 kts | 207° |
| 2026-04-30 02:05 | 26.36215 | -97.79694 | 3432 ft | 167 kts | 168° |
| 2026-04-30 02:05 | 26.35187 | -97.79218 | 3266 ft | 161 kts | 143° |
| 2026-04-30 02:05 | 26.34369 | -97.78384 | 3118 ft | 160 kts | 138° |
| 2026-04-30 02:05 | 26.33568 | -97.77522 | 2931 ft | 160 kts | 137° |
| 2026-04-30 02:06 | 26.32769 | -97.76658 | 2744 ft | 160 kts | 137° |
| 2026-04-30 02:06 | 26.31974 | -97.75797 | 2551 ft | 160 kts | 137° |
| 2026-04-30 02:06 | 26.31171 | -97.74926 | 2334 ft | 161 kts | 137° |
| 2026-04-30 02:06 | 26.30370 | -97.74054 | 2196 ft | 162 kts | 136° |
| 2026-04-30 02:07 | 26.29553 | -97.73168 | 1895 ft | 161 kts | 136° |
| 2026-04-30 02:07 | 26.28770 | -97.72317 | 1666 ft | 153 kts | 136° |
| 2026-04-30 02:07 | 26.28270 | -97.71776 | 1511 ft | 149 kts | 136° |
| 2026-04-30 02:07 | 26.27535 | -97.70978 | 1305 ft | 147 kts | 136° |
| 2026-04-30 02:08 | 26.26555 | -97.69911 | 1048 ft | 149 kts | 136° |
| 2026-04-30 02:08 | 26.25821 | -97.69115 | 876 ft | 145 kts | 135° |
| 2026-04-30 02:08 | 26.25107 | -97.68335 | 628 ft | 142 kts | 135° |
| 2026-04-30 02:08 | 26.24396 | -97.67567 | 418 ft | 143 kts | 136° |
| 2026-04-30 02:09 | 26.23919 | -97.67052 | 287 ft | 144 kts | 135° |
| 2026-04-30 02:09 | 26.23665 | -97.66775 | 204 ft | 151 kts | 135° |
| 2026-04-30 02:10 | 26.23144 | -97.66208 | 64 ft | 152 kts | 135° |
| 2026-04-30 02:10 | 26.22462 | -97.65469 | 50 ft | 113 kts | 136° |
| 2026-04-30 02:11 | 26.22073 | -97.65051 | 46 ft | 27 kts | 136° |
| 2026-04-30 02:11 | 26.21962 | -97.64934 | 44 ft | 22 kts | 129° |
| 2026-04-30 02:11 | 26.21877 | -97.64888 | 47 ft | 0 kts | 177° |
| 2026-04-30 02:11 | 26.21875 | -97.64887 | 47 ft | 3 kts | 165° |
| 2026-04-30 02:12 | 26.21895 | -97.64856 | 45 ft | 10 kts | 10° |
| 2026-04-30 02:12 | 26.21954 | -97.64906 | 44 ft | 12 kts | 315° |
| 2026-04-30 02:12 | 26.22012 | -97.64977 | 44 ft | 12 kts | 297° |
| 2026-04-30 02:12 | 26.21984 | -97.65062 | 44 ft | 12 kts | 264° |
| 2026-04-30 02:13 | 26.21981 | -97.65156 | 47 ft | 12 kts | 269° |
| 2026-04-30 02:13 | 26.21980 | -97.65246 | 48 ft | 12 kts | 269° |
| 2026-04-30 02:13 | 26.21979 | -97.65335 | 48 ft | 11 kts | 269° |
| 2026-04-30 02:13 | 26.21977 | -97.65421 | 48 ft | 11 kts | 269° |
| 2026-04-30 02:14 | 26.21975 | -97.65505 | 46 ft | 11 kts | 269° |
| 2026-04-30 02:14 | 26.21974 | -97.65587 | 47 ft | 11 kts | 269° |
| 2026-04-30 02:14 | 26.21973 | -97.65688 | 50 ft | 14 kts | 269° |
| 2026-04-30 02:14 | 26.21971 | -97.65808 | 49 ft | 17 kts | 268° |
| 2026-04-30 02:15 | 26.21969 | -97.65955 | 48 ft | 17 kts | 271° |
| 2026-04-30 02:15 | 26.22008 | -97.66047 | 45 ft | 14 kts | 1° |
| 2026-04-30 02:15 | 26.22105 | -97.66046 | 48 ft | 14 kts | 360° |
| 2026-04-30 02:15 | 26.22200 | -97.66046 | 47 ft | 13 kts | 0° |
| 2026-04-30 02:16 | 26.22287 | -97.66045 | 48 ft | 2 kts | 1° |
| 2026-04-30 02:16 | 26.22301 | -97.66045 | 48 ft | 2 kts | 1° |
| 2026-04-30 02:16 | 26.22304 | -97.66045 | 48 ft | 2 kts | 1° |
| 2026-04-30 02:16 | 26.22344 | -97.66044 | 48 ft | 10 kts | 1° |
| 2026-04-30 02:17 | 26.22415 | -97.66059 | 46 ft | 11 kts | 318° |
| 2026-04-30 02:17 | 26.22428 | -97.66110 | 47 ft | 5 kts | 271° |
| 2026-04-30 02:17 | 26.22429 | -97.66120 | 47 ft | 1 kts | 272° |